1895 Tropical Storm NOT_NAMED (1895169N33287)


IBTrACS version v04r00. Visit IBTrACS website for data access.
Please direct all questions to the IBTrACS Q and A forum

Storm track - Intensity - Wind Radii - Intensity Data - Source Data - All data

Summary Information

Storm ID 1895169N33287
Start Jun 17 12Z
Max Intensity 50 kt (Jun 19 06Z)
End Jun 26 12Z
ATCF IDs
Track status Best track data.

Storm track plot

Map of storm track

Intensity plots

Map of storm track

Radial wind information

No radial wind information for this storm


Position and Intensity Table

BASIN ISO_TIME_________ NATURE LAT LON MLC WIND
degrees north degrees east kts
NA 1895-06-17 12:00:00 TS 32.80 -73.00 35
NA 15:00:00 TS 32.90 -72.89 37
NA 18:00:00 TS 33.00 -72.80 40
NA 21:00:00 TS 33.10 -72.74 40
NA 1895-06-18 00:00:00 TS 33.20 -72.70 40
NA 03:00:00 TS 33.31 -72.65 42
NA 06:00:00 TS 33.40 -72.60 45
NA 09:00:00 TS 33.43 -72.57 45
NA 12:00:00 TS 33.50 -72.50 45
NA 15:00:00 TS 33.72 -72.32 45
NA 18:00:00 TS 34.00 -72.10 45
NA 21:00:00 TS 34.25 -71.91 45
NA 1895-06-19 00:00:00 TS 34.50 -71.70 45
NA 03:00:00 TS 34.75 -71.45 47
NA 06:00:00 TS 35.00 -71.20 50
NA 09:00:00 TS 35.26 -70.99 50
NA 12:00:00 TS 35.50 -70.80 50
NA 15:00:00 TS 35.71 -70.59 50
NA 18:00:00 TS 35.90 -70.40 50
NA 21:00:00 TS 36.10 -70.24 50
NA 1895-06-20 00:00:00 TS 36.30 -70.10 50
NA 03:00:00 TS 36.51 -69.95 50
NA 06:00:00 TS 36.70 -69.80 50
NA 09:00:00 TS 36.90 -69.67 47
NA 12:00:00 TS 37.00 -69.50 45
NA 15:00:00 TS 36.90 -69.21 45
NA 18:00:00 TS 36.70 -68.90 45
NA 21:00:00 TS 36.55 -68.65 45
NA 1895-06-21 00:00:00 TS 36.40 -68.40 45
NA 03:00:00 TS 36.25 -68.10 45
NA 06:00:00 TS 36.10 -67.80 45
NA 09:00:00 TS 35.93 -67.55 42
NA 12:00:00 TS 35.80 -67.30 40
NA 15:00:00 TS 35.74 -67.00 40
NA 18:00:00 ET 35.70 -66.70 40
NA 21:00:00 ET 35.64 -66.45 40
NA 1895-06-22 00:00:00 ET 35.60 -66.20 40
NA 03:00:00 ET 35.59 -65.91 40
NA 06:00:00 ET 35.60 -65.60 40
NA 09:00:00 ET 35.58 -65.33 40
NA 12:00:00 ET 35.60 -65.00 40
NA 15:00:00 ET 35.74 -64.53 40
NA 18:00:00 ET 35.90 -64.00 40
NA 21:00:00 ET 36.01 -63.50 40
NA 1895-06-23 00:00:00 ET 36.10 -63.00 40
NA 03:00:00 ET 36.20 -62.50 40
NA 06:00:00 ET 36.30 -62.00 40
NA 09:00:00 ET 36.32 -61.53 40
NA 12:00:00 ET 36.50 -61.00 40
NA 15:00:00 ET 37.08 -60.33 40
NA 18:00:00 ET 37.80 -59.60 40
NA 21:00:00 ET 38.40 -58.90 40
NA 1895-06-24 00:00:00 ET 39.00 -58.20 40
NA 03:00:00 ET 39.65 -57.49 40
NA 06:00:00 ET 40.30 -56.80 40
NA 09:00:00 ET 40.94 -56.13 37
NA 12:00:00 ET 41.50 -55.50 35
NA 15:00:00 ET 41.89 -54.93 35
NA 18:00:00 ET 42.20 -54.40 35
NA 21:00:00 ET 42.55 -53.90 35
NA 1895-06-25 00:00:00 ET 42.90 -53.40 35
NA 03:00:00 ET 43.26 -52.85 35
NA 06:00:00 ET 43.60 -52.30 35
NA 09:00:00 ET 43.96 -51.85 35
NA 12:00:00 ET 44.20 -51.30 35
NA 15:00:00 ET 44.20 -50.46 35
NA 18:00:00 ET 44.10 -49.50 35
NA 21:00:00 ET 44.05 -48.61 35
NA 1895-06-26 00:00:00 ET 44.00 -47.70 35
NA 03:00:00 ET 43.95 -46.75 32
NA 06:00:00 ET 43.90 -45.80 30
NA 09:00:00 ET 43.85 -44.89 30
NA 12:00:00 ET 43.80 -44.00 30

Source Information

Agency Information
USA
TOKYO
CMA
HKO
NEWDELHI
REUNION
BOM
NADI
WELLINGTON
DS824
TD9636
TD9635
NEUMANN
MLC

All available IBTrACS Data

SEASON BASIN SUBBASIN ISO_TIME_________ NATURE LAT LON DIST2LAND LANDFALL IFLAG USA SSHS MLC LAT MLC LON MLC CLASS MLC WIND STORM SPEED STORM DIR
Year degrees north degrees east km km 1 degrees north degrees east kts kts degrees
1895 NA NA 1895-06-17 12:00:00 TS 32.80 -73.00 383 383 _____________O -1 32.80 -73.00 TS 35 3 40
1895 NA NA 15:00:00 TS 32.90 -72.89 384 384 _____________P -1 32.90 -72.89 TS 37 3 40
1895 NA NA 18:00:00 TS 33.00 -72.80 385 379 _____________O -1 33.00 -72.80 TS 40 2 33
1895 NA NA 21:00:00 TS 33.10 -72.74 387 381 _____________P -1 33.10 -72.74 TS 40 2 23
1895 NA NA 1895-06-18 00:00:00 TS 33.20 -72.70 381 375 _____________O -1 33.20 -72.70 TS 40 2 22
1895 NA NA 03:00:00 TS 33.31 -72.65 382 374 _____________P -1 33.31 -72.65 TS 42 2 23
1895 NA NA 06:00:00 TS 33.40 -72.60 374 374 _____________O -1 33.40 -72.60 TS 45 1 29
1895 NA NA 09:00:00 TS 33.43 -72.57 374 374 _____________P -1 33.43 -72.57 TS 45 1 37
1895 NA NA 12:00:00 TS 33.50 -72.50 374 366 _____________O -1 33.50 -72.50 TS 45 4 36
1895 NA NA 15:00:00 TS 33.72 -72.32 373 366 _____________P -1 33.72 -72.32 TS 45 6 34
1895 NA NA 18:00:00 TS 34.00 -72.10 368 362 _____________O -1 34.00 -72.10 TS 45 6 33
1895 NA NA 21:00:00 TS 34.25 -71.91 372 367 _____________P -1 34.25 -71.91 TS 45 6 34
1895 NA NA 1895-06-19 00:00:00 TS 34.50 -71.70 373 373 _____________O -1 34.50 -71.70 TS 45 6 37
1895 NA NA 03:00:00 TS 34.75 -71.45 387 387 _____________P -1 34.75 -71.45 TS 47 6 39
1895 NA NA 06:00:00 TS 35.00 -71.20 398 396 _____________O -1 35.00 -71.20 TS 50 6 36
1895 NA NA 09:00:00 TS 35.26 -70.99 409 409 _____________P -1 35.26 -70.99 TS 50 6 33
1895 NA NA 12:00:00 TS 35.50 -70.80 424 424 _____________O -1 35.50 -70.80 TS 50 6 36
1895 NA NA 15:00:00 TS 35.71 -70.59 441 441 _____________P -1 35.71 -70.59 TS 50 5 39
1895 NA NA 18:00:00 TS 35.90 -70.40 458 458 _____________O -1 35.90 -70.40 TS 50 5 36
1895 NA NA 21:00:00 TS 36.10 -70.24 477 477 _____________P -1 36.10 -70.24 TS 50 5 31
1895 NA NA 1895-06-20 00:00:00 TS 36.30 -70.10 487 487 _____________O -1 36.30 -70.10 TS 50 5 30
1895 NA NA 03:00:00 TS 36.51 -69.95 499 495 _____________P -1 36.51 -69.95 TS 50 5 31
1895 NA NA 06:00:00 TS 36.70 -69.80 499 494 _____________O -1 36.70 -69.80 TS 50 5 30
1895 NA NA 09:00:00 TS 36.90 -69.67 494 494 _____________P -1 36.90 -69.67 TS 47 4 39
1895 NA NA 12:00:00 TS 37.00 -69.50 500 500 _____________O -1 37.00 -69.50 TS 45 4 91
1895 NA NA 15:00:00 TS 36.90 -69.21 524 524 _____________P -1 36.90 -69.21 TS 45 6 122
1895 NA NA 18:00:00 TS 36.70 -68.90 556 556 _____________O -1 36.70 -68.90 TS 45 6 127
1895 NA NA 21:00:00 TS 36.55 -68.65 582 582 _____________P -1 36.55 -68.65 TS 45 5 127
1895 NA NA 1895-06-21 00:00:00 TS 36.40 -68.40 601 601 _____________O -1 36.40 -68.40 TS 45 5 124
1895 NA NA 03:00:00 TS 36.25 -68.10 620 620 _____________P -1 36.25 -68.10 TS 45 6 122
1895 NA NA 06:00:00 TS 36.10 -67.80 651 651 _____________O -1 36.10 -67.80 TS 45 5 125
1895 NA NA 09:00:00 TS 35.93 -67.55 678 678 _____________P -1 35.93 -67.55 TS 42 5 127
1895 NA NA 12:00:00 TS 35.80 -67.30 697 697 _____________O -1 35.80 -67.30 TS 40 5 114
1895 NA NA 15:00:00 TS 35.74 -67.00 716 716 _____________P -1 35.74 -67.00 TS 40 5 102
1895 NA NA 18:00:00 ET 35.70 -66.70 726 726 _____________O -1 35.70 -66.70 EX 40 5 102
1895 NA NA 21:00:00 ET 35.64 -66.45 747 747 _____________P -1 35.64 -66.45 EX 40 4 104
1895 NA NA 1895-06-22 00:00:00 ET 35.60 -66.20 754 754 _____________O -1 35.60 -66.20 EX 40 4 96
1895 NA NA 03:00:00 ET 35.59 -65.91 766 766 _____________P -1 35.59 -65.91 EX 40 5 90
1895 NA NA 06:00:00 ET 35.60 -65.60 778 778 _____________O -1 35.60 -65.60 EX 40 5 92
1895 NA NA 09:00:00 ET 35.58 -65.33 791 791 _____________P -1 35.58 -65.33 EX 40 5 90
1895 NA NA 12:00:00 ET 35.60 -65.00 805 805 _____________O -1 35.60 -65.00 EX 40 7 76
1895 NA NA 15:00:00 ET 35.74 -64.53 819 810 _____________P -1 35.74 -64.53 EX 40 9 70
1895 NA NA 18:00:00 ET 35.90 -64.00 827 827 _____________O -1 35.90 -64.00 EX 40 9 72
1895 NA NA 21:00:00 ET 36.01 -63.50 846 842 _____________P -1 36.01 -63.50 EX 40 8 76
1895 NA NA 1895-06-23 00:00:00 ET 36.10 -63.00 846 841 _____________O -1 36.10 -63.00 EX 40 8 77
1895 NA NA 03:00:00 ET 36.20 -62.50 846 840 _____________P -1 36.20 -62.50 EX 40 8 76
1895 NA NA 06:00:00 ET 36.30 -62.00 848 848 _____________O -1 36.30 -62.00 EX 40 8 82
1895 NA NA 09:00:00 ET 36.32 -61.53 863 856 _____________P -1 36.32 -61.53 EX 40 8 76
1895 NA NA 12:00:00 ET 36.50 -61.00 860 829 _____________O -1 36.50 -61.00 EX 40 12 52
1895 NA NA 15:00:00 ET 37.08 -60.33 827 794 _____________P -1 37.08 -60.33 EX 40 17 41
1895 NA NA 18:00:00 ET 37.80 -59.60 794 771 _____________O -1 37.80 -59.60 EX 40 17 41
1895 NA NA 21:00:00 ET 38.40 -58.90 771 729 _____________P -1 38.40 -58.90 EX 40 16 42
1895 NA NA 1895-06-24 00:00:00 ET 39.00 -58.20 729 685 _____________O -1 39.00 -58.20 EX 40 17 41
1895 NA NA 03:00:00 ET 39.65 -57.49 688 647 _____________P -1 39.65 -57.49 EX 40 17 40
1895 NA NA 06:00:00 ET 40.30 -56.80 647 621 _____________O -1 40.30 -56.80 EX 40 17 39
1895 NA NA 09:00:00 ET 40.94 -56.13 626 586 _____________P -1 40.94 -56.13 EX 37 16 39
1895 NA NA 12:00:00 ET 41.50 -55.50 586 534 _____________O -1 41.50 -55.50 EX 35 13 44
1895 NA NA 15:00:00 ET 41.89 -54.93 532 493 _____________P -1 41.89 -54.93 EX 35 11 49
1895 NA NA 18:00:00 ET 42.20 -54.40 493 456 _____________O -1 42.20 -54.40 EX 35 10 49
1895 NA NA 21:00:00 ET 42.55 -53.90 456 411 _____________P -1 42.55 -53.90 EX 35 10 46
1895 NA NA 1895-06-25 00:00:00 ET 42.90 -53.40 411 378 _____________O -1 42.90 -53.40 EX 35 10 47
1895 NA NA 03:00:00 ET 43.26 -52.85 368 339 _____________P -1 43.26 -52.85 EX 35 11 49
1895 NA NA 06:00:00 ET 43.60 -52.30 340 314 _____________O -1 43.60 -52.30 EX 35 10 46
1895 NA NA 09:00:00 ET 43.96 -51.85 306 297 _____________P -1 43.96 -51.85 EX 35 9 50
1895 NA NA 12:00:00 ET 44.20 -51.30 304 304 _____________O -1 44.20 -51.30 EX 35 10 76
1895 NA NA 15:00:00 ET 44.20 -50.46 339 339 _____________P -1 44.20 -50.46 EX 35 13 94
1895 NA NA 18:00:00 ET 44.10 -49.50 400 400 _____________O -1 44.10 -49.50 EX 35 13 97
1895 NA NA 21:00:00 ET 44.05 -48.61 460 460 _____________P -1 44.05 -48.61 EX 35 13 94
1895 NA NA 1895-06-26 00:00:00 ET 44.00 -47.70 516 516 _____________O -1 44.00 -47.70 EX 35 13 94
1895 NA NA 03:00:00 ET 43.95 -46.75 579 579 _____________P -1 43.95 -46.75 EX 32 14 94
1895 NA NA 06:00:00 ET 43.90 -45.80 646 646 _____________O -1 43.90 -45.80 EX 30 13 94
1895 NA NA 09:00:00 ET 43.85 -44.89 707 707 _____________P -1 43.85 -44.89 EX 30 13 94
1895 NA NA 12:00:00 ET 43.80 -44.00 775 _____________O -1 43.80 -44.00 EX 30 13 95